Edwall, Washington
Current Conditions -  °F | °C
As of 8:58 AM on Saturday 22 Nov 2014 (Local Time) from KSKA Reporting Station
Scattered Clouds Scattered Clouds  
Wind Chill: 25°   Ceiling: Unl
Heat Index: 36°   Visibility: 10mi
Dew Point: 31°   Wind: 21mph
Humidity: 81%   Direction: 220°SW
Pressure: 29.6"   Gusts: NA
Location:  47.5°N, 117.95°W
Report Text: KSKA 221658Z AUTO 22018KT 10SM SCT140 02/M01 A2960 RMK AO2 SNE1612 SLP040 P0000 T00211008 RVRNO $
Loading
Personal Weather Stations






























Interactive Weather Map New forecast layout! Learn more

10-Day Weather Forecast

Advertisements
Track Severe Weather on mobile